createdAt,value
2019-01-27T00:00:44.424Z,72.30
2019-01-27T00:03:26.612Z,72.40
2019-01-27T00:06:04.109Z,72.20
2019-01-27T00:08:36.653Z,72.10
2019-01-27T00:11:13.595Z,72.00
2019-01-27T00:13:49.670Z,71.90
2019-01-27T00:16:24.640Z,71.90
2019-01-27T00:19:01.982Z,71.70
2019-01-27T00:21:40.504Z,71.80
2019-01-27T00:24:18.638Z,71.80
2019-01-27T00:27:00.228Z,71.80
2019-01-27T00:29:37.231Z,71.80
2019-01-27T00:32:13.195Z,72.00
2019-01-27T00:34:51.159Z,71.80
2019-01-27T00:37:29.401Z,71.80
2019-01-27T00:40:05.127Z,71.60
2019-01-27T00:42:46.781Z,71.60
2019-01-27T00:45:24.428Z,71.50
2019-01-27T00:48:03.148Z,71.60
2019-01-27T00:50:44.065Z,71.60
2019-01-27T00:53:23.271Z,71.60
2019-01-27T00:56:03.096Z,71.20
2019-01-27T00:58:40.768Z,71.40
2019-01-27T01:01:20.477Z,71.30
2019-01-27T01:04:03.967Z,71.50
2019-01-27T01:06:42.725Z,71.30
2019-01-27T01:09:19.675Z,71.40
2019-01-27T01:11:56.289Z,71.30
2019-01-27T01:14:37.074Z,71.30
2019-01-27T01:17:13.866Z,70.90
2019-01-27T01:20:02.533Z,71.10
2019-01-27T01:22:56.912Z,70.90
2019-01-27T01:26:01.542Z,71.10
2019-01-27T01:28:48.071Z,71.10
2019-01-27T01:31:41.448Z,70.90
2019-01-27T01:34:29.313Z,70.90
2019-01-27T01:37:33.301Z,71.30
2019-01-27T01:40:34.684Z,71.30
2019-01-27T01:43:07.857Z,71.10
2019-01-27T01:46:12.116Z,71.10
2019-01-27T01:48:51.470Z,71.10
2019-01-27T01:51:33.293Z,70.70
2019-01-27T01:54:43.291Z,70.50
2019-01-27T01:57:59.599Z,70.20
2019-01-27T02:01:04.106Z,70.80
2019-01-27T02:03:36.259Z,70.60
2019-01-27T02:06:47.365Z,71.10
2019-01-27T02:09:53.916Z,71.30
2019-01-27T02:12:38.429Z,71.40
2019-01-27T02:15:55.238Z,70.70
2019-01-27T02:18:26.562Z,70.50
2019-01-27T02:21:22.085Z,70.50
2019-01-27T02:24:23.576Z,70.60
2019-01-27T02:27:21.733Z,70.90
2019-01-27T02:30:39.702Z,70.70
2019-01-27T02:33:12.355Z,70.90
2019-01-27T02:36:02.633Z,70.70
2019-01-27T02:39:04.508Z,70.70
2019-01-27T02:41:36.270Z,70.60
2019-01-27T02:44:29.791Z,70.30
2019-01-27T02:47:04.840Z,70.30
2019-01-27T02:50:03.743Z,70.00
2019-01-27T02:52:58.791Z,70.00
2019-01-27T02:55:38.021Z,70.10
2019-01-27T02:58:26.010Z,70.10
2019-01-27T03:01:17.653Z,70.10
2019-01-27T03:03:52.146Z,70.10
2019-01-27T03:07:00.618Z,70.10
2019-01-27T03:09:48.228Z,70.00
2019-01-27T03:12:35.781Z,69.90
2019-01-27T03:15:26.595Z,70.00
2019-01-27T03:17:57.760Z,69.90
2019-01-27T03:20:57.220Z,69.30
2019-01-27T03:23:46.568Z,69.50
2019-01-27T03:26:18.714Z,69.40
2019-01-27T03:29:28.314Z,69.20
2019-01-27T03:32:05.376Z,69.70
2019-01-27T03:34:53.414Z,69.70
2019-01-27T03:37:52.770Z,69.50
2019-01-27T03:40:55.370Z,69.60
2019-01-27T03:43:47.378Z,69.40
2019-01-27T03:47:02.199Z,69.40
2019-01-27T03:49:58.754Z,69.20
2019-01-27T03:52:35.268Z,69.30
2019-01-27T03:55:44.875Z,69.50
2019-01-27T03:58:33.878Z,69.10
2019-01-27T04:01:29.473Z,69.20
2019-01-27T04:03:59.995Z,68.70
2019-01-27T04:06:46.015Z,69.10
2019-01-27T04:09:44.470Z,69.20
2019-01-27T04:12:29.798Z,69.00
2019-01-27T04:21:30.612Z,69.30
2019-01-27T04:27:59.323Z,68.00
2019-01-27T04:34:25.480Z,68.60
2019-01-27T04:40:48.872Z,68.80
2019-01-27T04:44:19.111Z,68.70
2019-01-27T04:50:48.222Z,69.00
2019-01-27T04:54:13.641Z,68.70
2019-01-27T05:00:38.597Z,68.90
2019-01-27T05:04:07.461Z,68.70
2019-01-27T05:10:41.840Z,68.30
2019-01-27T05:14:05.186Z,68.40
2019-01-27T05:16:54.847Z,68.60
2019-01-27T05:19:46.130Z,68.00
2019-01-27T05:22:29.440Z,68.50
2019-01-27T05:25:21.289Z,68.80
2019-01-27T05:28:13.177Z,68.90
2019-01-27T05:30:54.855Z,68.50
2019-01-27T05:33:26.712Z,68.20
2019-01-27T05:36:29.418Z,68.40
2019-01-27T05:39:00.580Z,68.30
2019-01-27T05:41:41.831Z,68.00
2019-01-27T05:44:23.389Z,67.80
2019-01-27T05:47:02.249Z,68.00
2019-01-27T05:49:55.504Z,68.60
2019-01-27T05:52:45.349Z,68.10
2019-01-27T05:55:37.320Z,68.30
2019-01-27T05:58:24.490Z,68.20
2019-01-27T06:01:16.861Z,67.70
2019-01-27T06:04:00.071Z,67.70
2019-01-27T06:06:52.308Z,67.80
2019-01-27T06:09:43.439Z,68.00
2019-01-27T06:12:26.658Z,67.70
2019-01-27T06:15:14.339Z,67.60
2019-01-27T06:17:44.205Z,67.70
2019-01-27T06:20:29.330Z,67.70
2019-01-27T06:23:25.638Z,67.70
2019-01-27T06:26:20.449Z,68.10
2019-01-27T06:29:03.523Z,68.20
2019-01-27T06:31:49.895Z,68.10
2019-01-27T06:34:39.739Z,67.90
2019-01-27T06:37:26.621Z,67.70
2019-01-27T06:40:20.002Z,68.00
2019-01-27T06:43:04.047Z,68.00
2019-01-27T06:46:05.336Z,68.20
2019-01-27T06:49:01.198Z,68.30
2019-01-27T06:51:44.485Z,68.30
2019-01-27T06:54:28.458Z,68.30
2019-01-27T06:57:17.419Z,68.50
2019-01-27T07:00:17.877Z,68.50
2019-01-27T07:02:54.102Z,68.80
2019-01-27T07:05:57.441Z,68.60
2019-01-27T07:09:01.163Z,68.80
2019-01-27T07:12:11.407Z,68.70
2019-01-27T07:15:05.510Z,68.30
2019-01-27T07:18:16.634Z,68.90
2019-01-27T07:21:25.093Z,69.10
2019-01-27T07:24:54.321Z,69.30
2019-01-27T07:28:00.635Z,69.30
2019-01-27T07:31:18.059Z,69.50
2019-01-27T07:34:22.046Z,69.30
2019-01-27T07:37:20.859Z,68.90
2019-01-27T07:40:18.634Z,69.40
2019-01-27T07:43:28.121Z,69.40
2019-01-27T07:46:33.148Z,69.50
2019-01-27T07:49:58.097Z,69.30
2019-01-27T07:52:46.511Z,69.70
2019-01-27T07:56:03.082Z,69.80
2019-01-27T07:59:08.086Z,69.60
2019-01-27T08:02:07.032Z,69.70
2019-01-27T08:05:27.200Z,69.40
2019-01-27T08:08:30.663Z,69.70
2019-01-27T08:11:28.909Z,69.80
2019-01-27T08:14:48.147Z,69.80
2019-01-27T08:17:36.135Z,69.80
2019-01-27T08:20:23.847Z,69.70
2019-01-27T08:23:32.329Z,69.90
2019-01-27T08:26:30.469Z,69.80
2019-01-27T08:29:33.224Z,69.50
2019-01-27T08:32:29.810Z,69.60
2019-01-27T08:35:22.117Z,69.40
2019-01-27T08:38:26.807Z,69.50
2019-01-27T08:41:18.404Z,69.50
2019-01-27T08:44:16.441Z,69.70
2019-01-27T08:47:04.070Z,69.30
2019-01-27T08:49:41.264Z,69.50
2019-01-27T08:52:23.676Z,68.90
2019-01-27T08:55:14.454Z,69.30
2019-01-27T08:58:21.550Z,69.40
2019-01-27T09:01:19.501Z,69.60
2019-01-27T09:04:21.931Z,68.80
2019-01-27T09:07:23.703Z,69.20
2019-01-27T09:10:18.495Z,69.20
2019-01-27T09:13:19.653Z,69.20
2019-01-27T09:16:25.811Z,69.10
2019-01-27T09:19:27.233Z,69.00
2019-01-27T09:22:32.732Z,68.60
2019-01-27T09:25:51.172Z,68.20
2019-01-27T09:28:54.345Z,68.70
2019-01-27T09:31:45.050Z,68.60
2019-01-27T09:34:43.851Z,68.10
2019-01-27T09:37:59.178Z,68.00
2019-01-27T09:41:13.763Z,67.40
2019-01-27T09:44:20.546Z,68.30
2019-01-27T09:47:25.549Z,68.10
2019-01-27T09:50:13.288Z,68.50
2019-01-27T09:53:00.258Z,68.70
2019-01-27T09:56:01.937Z,67.70
2019-01-27T09:58:58.400Z,68.10
2019-01-27T10:02:07.776Z,68.10
2019-01-27T10:04:42.916Z,68.20
2019-01-27T10:07:56.437Z,68.20
2019-01-27T10:10:45.543Z,67.90
2019-01-27T10:13:48.654Z,67.00
2019-01-27T10:16:46.355Z,67.20
2019-01-27T10:19:47.748Z,67.20
2019-01-27T10:23:03.103Z,67.50
2019-01-27T10:29:31.600Z,66.90
2019-01-27T10:32:37.939Z,67.40
2019-01-27T10:35:45.421Z,66.30
2019-01-27T10:38:45.955Z,66.50
2019-01-27T10:41:50.694Z,66.20
2019-01-27T10:44:59.009Z,66.00
2019-01-27T10:48:12.412Z,66.10
2019-01-27T10:51:34.432Z,66.40
2019-01-27T10:54:32.723Z,65.80
2019-01-27T10:57:48.782Z,65.10
2019-01-27T11:01:07.805Z,64.70
2019-01-27T11:04:21.853Z,64.90
2019-01-27T11:07:44.906Z,64.10
2019-01-27T11:11:00.483Z,64.70
2019-01-27T11:14:31.901Z,63.70
2019-01-27T11:17:34.091Z,63.30
2019-01-27T11:20:46.133Z,62.80
2019-01-27T11:24:15.245Z,62.40
2019-01-27T11:27:14.704Z,61.80
2019-01-27T11:30:33.162Z,62.70
2019-01-27T11:33:40.164Z,61.80
2019-01-27T11:36:53.064Z,62.00
2019-01-27T11:40:25.889Z,62.80
2019-01-27T11:43:16.726Z,62.40
2019-01-27T11:46:27.236Z,62.10
2019-01-27T11:49:17.734Z,60.90
2019-01-27T11:52:31.026Z,61.10
2019-01-27T11:55:02.781Z,61.60
2019-01-27T11:58:13.347Z,60.50
2019-01-27T12:01:22.746Z,61.00
2019-01-27T12:04:00.839Z,60.80
2019-01-27T12:06:52.633Z,60.60
2019-01-27T12:09:28.804Z,60.40
2019-01-27T12:12:21.602Z,60.90
2019-01-27T12:15:27.048Z,60.20
2019-01-27T12:18:09.267Z,61.00
2019-01-27T12:21:01.805Z,60.70
2019-01-27T12:23:45.174Z,61.40
2019-01-27T12:26:56.902Z,60.60
2019-01-27T12:29:56.598Z,59.80
2019-01-27T12:33:10.535Z,60.00
2019-01-27T12:36:41.195Z,59.20
2019-01-27T12:39:09.941Z,59.20
2019-01-27T12:42:11.898Z,59.70
2019-01-27T12:45:10.145Z,59.70
2019-01-27T12:48:17.232Z,58.90
2019-01-27T12:51:27.241Z,59.20
2019-01-27T12:53:58.287Z,59.30
2019-01-27T12:57:03.574Z,59.50
2019-01-27T13:00:06.209Z,58.80
2019-01-27T13:03:19.639Z,58.70
2019-01-27T13:06:26.877Z,59.20
2019-01-27T13:09:20.386Z,59.10
2019-01-27T13:12:30.289Z,58.60
2019-01-27T13:15:28.912Z,58.80
2019-01-27T13:18:47.603Z,58.70
2019-01-27T13:21:53.100Z,58.00
2019-01-27T13:25:00.189Z,58.20
2019-01-27T13:28:01.196Z,58.50
2019-01-27T13:31:13.127Z,58.80
2019-01-27T13:33:50.317Z,58.50
2019-01-27T13:37:13.670Z,58.50
2019-01-27T13:39:46.930Z,58.70
2019-01-27T13:43:00.781Z,58.80
2019-01-27T13:45:59.584Z,58.80
2019-01-27T13:49:13.861Z,58.10
2019-01-27T13:52:08.715Z,58.00
2019-01-27T13:55:31.056Z,58.40
2019-01-27T13:59:00.675Z,58.80
2019-01-27T14:05:27.656Z,59.10
2019-01-27T14:08:45.340Z,59.30
2019-01-27T14:12:09.657Z,59.30
2019-01-27T14:15:23.640Z,59.70
2019-01-27T14:22:21.116Z,59.80
2019-01-27T14:25:24.334Z,60.10
2019-01-27T14:28:51.095Z,59.20
2019-01-27T14:31:57.982Z,59.20
2019-01-27T14:35:13.047Z,59.30
2019-01-27T14:38:26.785Z,59.10
2019-01-27T14:41:46.440Z,59.10
2019-01-27T14:44:55.237Z,58.90
2019-01-27T14:48:09.410Z,59.30
2019-01-27T14:57:26.607Z,59.60
2019-01-27T15:00:51.586Z,59.70
2019-01-27T15:07:18.925Z,60.10
2019-01-27T15:13:48.681Z,60.00
2019-01-27T15:20:29.893Z,61.10
2019-01-27T15:27:26.363Z,61.50
2019-01-27T15:34:21.011Z,61.70
2019-01-27T15:37:47.740Z,61.60
2019-01-27T15:44:28.907Z,61.70
2019-01-27T15:50:38.728Z,61.80
2019-01-27T15:53:49.109Z,62.00
2019-01-27T15:56:52.235Z,61.80
2019-01-27T15:59:51.383Z,62.00
2019-01-27T16:02:37.997Z,62.00
2019-01-27T16:09:18.053Z,62.00
2019-01-27T16:11:49.069Z,61.90
2019-01-27T16:14:43.762Z,61.40
2019-01-27T16:17:52.227Z,61.40
2019-01-27T16:20:35.866Z,62.20
2019-01-27T16:23:44.658Z,62.20
2019-01-27T16:26:31.518Z,62.00
2019-01-27T16:29:46.642Z,61.40
2019-01-27T16:32:54.089Z,61.80
2019-01-27T16:35:38.655Z,61.90
2019-01-27T16:38:09.627Z,61.70
2019-01-27T16:40:46.781Z,61.50
2019-01-27T16:43:20.958Z,61.90
2019-01-27T16:45:57.806Z,61.80
2019-01-27T16:48:35.694Z,62.00
2019-01-27T16:51:20.081Z,62.00
2019-01-27T16:54:04.054Z,61.60
2019-01-27T16:56:55.515Z,61.80
2019-01-27T16:59:36.158Z,62.00
2019-01-27T17:02:14.578Z,61.80
2019-01-27T17:04:56.678Z,61.80
2019-01-27T17:07:44.606Z,61.70
2019-01-27T17:11:11.702Z,61.60
2019-01-27T17:14:06.555Z,61.70
2019-01-27T17:16:53.332Z,62.10
2019-01-27T17:19:39.516Z,62.20
2019-01-27T17:22:28.808Z,62.20
2019-01-27T17:25:10.898Z,62.20
2019-01-27T17:27:42.383Z,62.20
2019-01-27T17:30:50.003Z,61.40
2019-01-27T17:33:26.945Z,61.30
2019-01-27T17:36:09.565Z,62.40
2019-01-27T17:38:45.577Z,62.50
2019-01-27T17:41:22.143Z,62.50
2019-01-27T17:44:04.719Z,62.60
2019-01-27T17:47:10.355Z,62.80
2019-01-27T17:49:48.740Z,62.30
2019-01-27T17:52:37.884Z,62.90
2019-01-27T17:55:33.881Z,63.00
2019-01-27T17:58:59.096Z,63.00
2019-01-27T18:01:59.657Z,63.20
2019-01-27T18:04:48.230Z,63.00
2019-01-27T18:07:51.899Z,63.10
2019-01-27T18:10:40.505Z,62.60
2019-01-27T18:13:44.957Z,62.60
2019-01-27T18:16:20.934Z,62.50
2019-01-27T18:19:04.639Z,62.50
2019-01-27T18:21:55.087Z,62.70
2019-01-27T18:24:55.035Z,62.60
2019-01-27T18:27:49.908Z,62.60
2019-01-27T18:30:57.361Z,63.10
2019-01-27T18:33:38.042Z,62.90
2019-01-27T18:36:49.308Z,63.10
2019-01-27T18:39:58.647Z,63.00
2019-01-27T18:43:03.265Z,63.00
2019-01-27T18:46:14.326Z,63.20
2019-01-27T18:49:06.286Z,63.30
2019-01-27T18:52:35.182Z,63.30
2019-01-27T18:55:43.868Z,62.90
2019-01-27T18:59:07.382Z,63.40
2019-01-27T19:02:25.701Z,63.40
2019-01-27T19:05:43.282Z,63.30
2019-01-27T19:08:41.590Z,63.30
2019-01-27T19:12:03.278Z,63.60
2019-01-27T19:15:12.069Z,63.70
2019-01-27T19:18:37.288Z,63.70
2019-01-27T19:21:57.038Z,63.80
2019-01-27T19:25:28.562Z,63.80
2019-01-27T19:29:08.952Z,63.80
2019-01-27T19:32:09.065Z,63.90
2019-01-27T19:35:26.028Z,63.60
2019-01-27T19:38:30.820Z,63.50
2019-01-27T19:41:50.489Z,63.50
2019-01-27T19:44:38.797Z,63.70
2019-01-27T19:48:13.869Z,64.00
2019-01-27T19:51:25.678Z,64.10
2019-01-27T19:54:53.845Z,64.10
2019-01-27T19:58:34.134Z,64.00
2019-01-27T20:01:48.566Z,63.90
2019-01-27T20:05:08.953Z,63.90
2019-01-27T20:08:22.090Z,63.90
2019-01-27T20:11:40.761Z,64.10
2019-01-27T20:14:47.311Z,64.10
2019-01-27T20:17:33.396Z,64.20
2019-01-27T20:20:49.016Z,64.10
2019-01-27T20:23:37.080Z,64.10
2019-01-27T20:26:32.105Z,64.20
2019-01-27T20:29:14.778Z,64.30
2019-01-27T20:32:06.734Z,64.30
2019-01-27T20:35:06.535Z,64.10
2019-01-27T20:38:02.078Z,64.20
2019-01-27T20:41:01.330Z,64.30
2019-01-27T20:43:59.837Z,64.50
2019-01-27T20:47:01.892Z,64.50
2019-01-27T20:50:07.610Z,64.60
2019-01-27T20:53:15.930Z,64.70
2019-01-27T20:56:08.103Z,64.80
2019-01-27T20:59:17.192Z,64.70
2019-01-27T21:02:14.712Z,64.60
2019-01-27T21:05:09.107Z,64.80
2019-01-27T21:08:12.764Z,64.70
2019-01-27T21:10:56.139Z,65.00
2019-01-27T21:13:54.081Z,65.00
2019-01-27T21:16:42.572Z,65.20
2019-01-27T21:19:38.475Z,65.20
2019-01-27T21:22:08.590Z,65.30
2019-01-27T21:24:39.759Z,65.50
2019-01-27T21:27:14.768Z,65.50
2019-01-27T21:29:50.113Z,65.60
2019-01-27T21:32:21.347Z,65.60
2019-01-27T21:34:53.340Z,65.90
2019-01-27T21:37:25.604Z,66.10
2019-01-27T21:39:57.551Z,66.10
2019-01-27T21:42:30.943Z,66.10
2019-01-27T21:45:13.375Z,66.10
2019-01-27T21:47:50.207Z,66.50
2019-01-27T21:50:34.233Z,66.40
2019-01-27T21:53:17.185Z,66.60
2019-01-27T21:55:59.726Z,67.00
2019-01-27T21:58:41.162Z,66.90
2019-01-27T22:01:25.476Z,67.20
2019-01-27T22:04:13.196Z,67.20
2019-01-27T22:06:48.984Z,67.50
2019-01-27T22:09:19.518Z,67.50
2019-01-27T22:11:49.849Z,67.70
2019-01-27T22:14:30.013Z,67.40
2019-01-27T22:17:13.617Z,67.70
2019-01-27T22:19:52.333Z,67.60
2019-01-27T22:22:28.705Z,67.70
2019-01-27T22:25:18.324Z,67.60
2019-01-27T22:27:55.015Z,67.80
2019-01-27T22:30:45.945Z,67.70
2019-01-27T22:33:24.548Z,68.30
2019-01-27T22:36:11.418Z,68.50
2019-01-27T22:38:43.667Z,68.80
2019-01-27T22:41:13.975Z,68.40
2019-01-27T22:43:43.402Z,68.00
2019-01-27T22:46:13.030Z,68.00
2019-01-27T22:48:42.331Z,68.20
2019-01-27T22:51:12.694Z,67.90
2019-01-27T22:53:43.138Z,68.30
2019-01-27T22:56:12.576Z,68.50
2019-01-27T22:58:41.889Z,68.60
2019-01-27T23:01:14.695Z,68.80
2019-01-27T23:03:53.216Z,68.60
2019-01-27T23:06:23.567Z,68.10
2019-01-27T23:08:52.936Z,68.20
2019-01-27T23:11:22.351Z,68.40
2019-01-27T23:13:52.726Z,68.10
2019-01-27T23:16:22.115Z,67.80
2019-01-27T23:18:53.542Z,67.90
2019-01-27T23:21:22.920Z,67.60
2019-01-27T23:23:59.806Z,67.40
2019-01-27T23:26:29.163Z,67.20
2019-01-27T23:29:06.893Z,67.20
2019-01-27T23:31:47.272Z,67.40
2019-01-27T23:34:31.567Z,67.10
2019-01-27T23:37:22.460Z,67.50
2019-01-27T23:40:15.209Z,67.50
2019-01-27T23:43:03.303Z,67.50
2019-01-27T23:45:43.177Z,67.20
2019-01-27T23:48:45.098Z,67.50
2019-01-27T23:51:30.588Z,67.80
2019-01-27T23:54:02.833Z,67.40
2019-01-27T23:56:40.190Z,67.60
2019-01-27T23:59:22.902Z,67.80
